sensor_id;sensor_type;location;lat;lon;timestamp;P1;durP1;ratioP1;P2;durP2;ratioP2
48522;SDS011;34315;50.150;11.070;2024-01-15T00:02:30;35.28;;;12.32;;
48522;SDS011;34315;50.150;11.070;2024-01-15T00:07:31;27.67;;;10.65;;
48522;SDS011;34315;50.150;11.070;2024-01-15T00:12:32;36.85;;;15.55;;
48522;SDS011;34315;50.150;11.070;2024-01-15T00:17:33;36.33;;;12.50;;
48522;SDS011;34315;50.150;11.070;2024-01-15T00:22:34;37.55;;;13.73;;
48522;SDS011;34315;50.150;11.070;2024-01-15T00:27:36;37.90;;;13.73;;
48522;SDS011;34315;50.150;11.070;2024-01-15T00:32:37;35.20;;;12.00;;
48522;SDS011;34315;50.150;11.070;2024-01-15T00:37:38;28.55;;;11.00;;
48522;SDS011;34315;50.150;11.070;2024-01-15T00:42:41;30.90;;;10.90;;
48522;SDS011;34315;50.150;11.070;2024-01-15T00:47:42;35.83;;;13.05;;
48522;SDS011;34315;50.150;11.070;2024-01-15T00:52:43;38.15;;;13.70;;
48522;SDS011;34315;50.150;11.070;2024-01-15T00:57:44;36.10;;;13.85;;
48522;SDS011;34315;50.150;11.070;2024-01-15T01:02:45;31.25;;;12.18;;
48522;SDS011;34315;50.150;11.070;2024-01-15T01:07:46;36.33;;;12.00;;
48522;SDS011;34315;50.150;11.070;2024-01-15T01:12:47;23.98;;;9.25;;
48522;SDS011;34315;50.150;11.070;2024-01-15T01:17:48;43.08;;;13.43;;
48522;SDS011;34315;50.150;11.070;2024-01-15T01:22:49;41.13;;;12.32;;
48522;SDS011;34315;50.150;11.070;2024-01-15T01:27:50;36.80;;;13.57;;
48522;SDS011;34315;50.150;11.070;2024-01-15T01:32:52;38.70;;;13.95;;
48522;SDS011;34315;50.150;11.070;2024-01-15T01:37:53;36.63;;;12.82;;
48522;SDS011;34315;50.150;11.070;2024-01-15T01:42:54;34.15;;;12.10;;
48522;SDS011;34315;50.150;11.070;2024-01-15T01:47:56;30.15;;;10.68;;
48522;SDS011;34315;50.150;11.070;2024-01-15T01:52:57;23.35;;;10.25;;
48522;SDS011;34315;50.150;11.070;2024-01-15T01:57:58;31.00;;;10.02;;
48522;SDS011;34315;50.150;11.070;2024-01-15T02:02:59;37.65;;;12.30;;
48522;SDS011;34315;50.150;11.070;2024-01-15T02:08:01;26.48;;;9.68;;
48522;SDS011;34315;50.150;11.070;2024-01-15T02:13:02;32.45;;;11.73;;
48522;SDS011;34315;50.150;11.070;2024-01-15T02:18:04;30.45;;;9.50;;
48522;SDS011;34315;50.150;11.070;2024-01-15T02:28:16;35.17;;;12.82;;
48522;SDS011;34315;50.150;11.070;2024-01-15T02:33:18;29.60;;;11.93;;
48522;SDS011;34315;50.150;11.070;2024-01-15T02:38:19;27.35;;;9.98;;
48522;SDS011;34315;50.150;11.070;2024-01-15T02:43:20;28.90;;;10.38;;
48522;SDS011;34315;50.150;11.070;2024-01-15T02:48:21;22.25;;;10.55;;
48522;SDS011;34315;50.150;11.070;2024-01-15T02:53:22;34.50;;;11.35;;
48522;SDS011;34315;50.150;11.070;2024-01-15T02:58:23;32.40;;;10.93;;
48522;SDS011;34315;50.150;11.070;2024-01-15T03:03:24;31.17;;;10.73;;
48522;SDS011;34315;50.150;11.070;2024-01-15T03:08:26;33.00;;;11.32;;
48522;SDS011;34315;50.150;11.070;2024-01-15T03:13:27;28.13;;;10.55;;
48522;SDS011;34315;50.150;11.070;2024-01-15T03:18:28;23.05;;;8.90;;
48522;SDS011;34315;50.150;11.070;2024-01-15T03:23:29;20.88;;;8.38;;
48522;SDS011;34315;50.150;11.070;2024-01-15T03:28:30;23.33;;;9.57;;
48522;SDS011;34315;50.150;11.070;2024-01-15T03:33:31;22.63;;;10.25;;
48522;SDS011;34315;50.150;11.070;2024-01-15T03:38:32;27.30;;;11.13;;
48522;SDS011;34315;50.150;11.070;2024-01-15T03:43:33;23.27;;;7.95;;
48522;SDS011;34315;50.150;11.070;2024-01-15T03:48:34;22.80;;;11.32;;
48522;SDS011;34315;50.150;11.070;2024-01-15T03:53:35;21.08;;;8.68;;
48522;SDS011;34315;50.150;11.070;2024-01-15T03:58:36;28.50;;;9.15;;
48522;SDS011;34315;50.150;11.070;2024-01-15T04:03:38;21.70;;;8.60;;
48522;SDS011;34315;50.150;11.070;2024-01-15T04:08:39;15.75;;;6.28;;
48522;SDS011;34315;50.150;11.070;2024-01-15T04:13:40;19.77;;;7.93;;
48522;SDS011;34315;50.150;11.070;2024-01-15T04:18:41;22.15;;;9.60;;
48522;SDS011;34315;50.150;11.070;2024-01-15T04:23:42;26.88;;;9.18;;
48522;SDS011;34315;50.150;11.070;2024-01-15T04:28:43;21.70;;;8.68;;
48522;SDS011;34315;50.150;11.070;2024-01-15T04:33:44;26.75;;;9.48;;
48522;SDS011;34315;50.150;11.070;2024-01-15T04:38:45;19.75;;;9.32;;
48522;SDS011;34315;50.150;11.070;2024-01-15T04:43:46;20.40;;;8.35;;
48522;SDS011;34315;50.150;11.070;2024-01-15T04:48:47;22.45;;;9.00;;
48522;SDS011;34315;50.150;11.070;2024-01-15T04:53:48;21.25;;;8.82;;
48522;SDS011;34315;50.150;11.070;2024-01-15T04:58:49;20.48;;;8.13;;
48522;SDS011;34315;50.150;11.070;2024-01-15T05:03:51;20.88;;;7.13;;
48522;SDS011;34315;50.150;11.070;2024-01-15T05:08:52;15.30;;;6.65;;
48522;SDS011;34315;50.150;11.070;2024-01-15T05:13:53;21.35;;;8.75;;
48522;SDS011;34315;50.150;11.070;2024-01-15T05:18:54;22.77;;;9.07;;
48522;SDS011;34315;50.150;11.070;2024-01-15T05:23:55;21.23;;;8.68;;
48522;SDS011;34315;50.150;11.070;2024-01-15T05:28:56;19.55;;;7.85;;
48522;SDS011;34315;50.150;11.070;2024-01-15T05:33:57;20.42;;;8.40;;
48522;SDS011;34315;50.150;11.070;2024-01-15T05:38:58;24.00;;;8.70;;
48522;SDS011;34315;50.150;11.070;2024-01-15T05:43:59;17.50;;;8.57;;
48522;SDS011;34315;50.150;11.070;2024-01-15T05:49:01;18.50;;;7.10;;
48522;SDS011;34315;50.150;11.070;2024-01-15T05:54:02;18.77;;;8.25;;
48522;SDS011;34315;50.150;11.070;2024-01-15T05:59:03;15.35;;;6.88;;
48522;SDS011;34315;50.150;11.070;2024-01-15T06:04:04;16.15;;;6.65;;
48522;SDS011;34315;50.150;11.070;2024-01-15T06:09:05;17.95;;;7.63;;
48522;SDS011;34315;50.150;11.070;2024-01-15T06:14:07;14.73;;;7.47;;
48522;SDS011;34315;50.150;11.070;2024-01-15T06:19:08;17.73;;;7.22;;
48522;SDS011;34315;50.150;11.070;2024-01-15T06:24:09;12.13;;;5.35;;
48522;SDS011;34315;50.150;11.070;2024-01-15T06:29:10;16.42;;;7.47;;
48522;SDS011;34315;50.150;11.070;2024-01-15T06:34:11;18.58;;;7.43;;
48522;SDS011;34315;50.150;11.070;2024-01-15T06:39:13;11.90;;;5.60;;
48522;SDS011;34315;50.150;11.070;2024-01-15T06:44:14;21.70;;;7.53;;
48522;SDS011;34315;50.150;11.070;2024-01-15T06:49:16;20.80;;;8.15;;
48522;SDS011;34315;50.150;11.070;2024-01-15T06:54:17;18.60;;;8.20;;
48522;SDS011;34315;50.150;11.070;2024-01-15T06:59:18;16.27;;;7.05;;
48522;SDS011;34315;50.150;11.070;2024-01-15T07:04:19;19.73;;;7.88;;
48522;SDS011;34315;50.150;11.070;2024-01-15T07:09:20;18.92;;;7.13;;
48522;SDS011;34315;50.150;11.070;2024-01-15T07:14:21;18.10;;;6.65;;
48522;SDS011;34315;50.150;11.070;2024-01-15T07:19:22;15.98;;;7.30;;
48522;SDS011;34315;50.150;11.070;2024-01-15T07:24:23;15.07;;;6.32;;
48522;SDS011;34315;50.150;11.070;2024-01-15T07:29:24;18.63;;;8.35;;
48522;SDS011;34315;50.150;11.070;2024-01-15T07:34:26;20.20;;;8.18;;
48522;SDS011;34315;50.150;11.070;2024-01-15T07:39:27;21.42;;;8.45;;
48522;SDS011;34315;50.150;11.070;2024-01-15T07:44:29;18.58;;;8.63;;
48522;SDS011;34315;50.150;11.070;2024-01-15T07:49:30;19.88;;;8.25;;
48522;SDS011;34315;50.150;11.070;2024-01-15T07:54:32;19.83;;;6.95;;
48522;SDS011;34315;50.150;11.070;2024-01-15T07:59:33;17.27;;;6.50;;
48522;SDS011;34315;50.150;11.070;2024-01-15T08:04:36;15.73;;;6.50;;
48522;SDS011;34315;50.150;11.070;2024-01-15T08:09:38;18.02;;;8.27;;
48522;SDS011;34315;50.150;11.070;2024-01-15T08:14:40;16.90;;;6.65;;
48522;SDS011;34315;50.150;11.070;2024-01-15T08:19:41;15.18;;;7.07;;
48522;SDS011;34315;50.150;11.070;2024-01-15T08:24:43;21.40;;;7.60;;
48522;SDS011;34315;50.150;11.070;2024-01-15T08:29:45;26.60;;;8.15;;
48522;SDS011;34315;50.150;11.070;2024-01-15T08:34:46;19.60;;;7.53;;
48522;SDS011;34315;50.150;11.070;2024-01-15T08:39:49;15.63;;;7.47;;
48522;SDS011;34315;50.150;11.070;2024-01-15T08:44:53;18.80;;;8.32;;
48522;SDS011;34315;50.150;11.070;2024-01-15T08:49:54;17.77;;;8.05;;
48522;SDS011;34315;50.150;11.070;2024-01-15T08:54:56;20.77;;;8.45;;
48522;SDS011;34315;50.150;11.070;2024-01-15T08:59:57;21.08;;;7.68;;
48522;SDS011;34315;50.150;11.070;2024-01-15T09:04:59;16.30;;;6.10;;
48522;SDS011;34315;50.150;11.070;2024-01-15T09:10:00;17.60;;;7.95;;
48522;SDS011;34315;50.150;11.070;2024-01-15T09:15:03;19.77;;;7.35;;
48522;SDS011;34315;50.150;11.070;2024-01-15T09:20:05;19.52;;;8.00;;
48522;SDS011;34315;50.150;11.070;2024-01-15T09:25:06;18.60;;;6.93;;
48522;SDS011;34315;50.150;11.070;2024-01-15T09:30:08;15.90;;;7.15;;
48522;SDS011;34315;50.150;11.070;2024-01-15T09:35:09;12.23;;;5.20;;
48522;SDS011;34315;50.150;11.070;2024-01-15T09:40:12;24.10;;;7.22;;
48522;SDS011;34315;50.150;11.070;2024-01-15T09:45:14;17.85;;;6.82;;
48522;SDS011;34315;50.150;11.070;2024-01-15T09:50:16;16.50;;;5.78;;
48522;SDS011;34315;50.150;11.070;2024-01-15T09:55:17;9.52;;;4.57;;
48522;SDS011;34315;50.150;11.070;2024-01-15T10:00:21;18.35;;;7.13;;
48522;SDS011;34315;50.150;11.070;2024-01-15T10:05:24;19.40;;;6.57;;
48522;SDS011;34315;50.150;11.070;2024-01-15T10:10:25;18.27;;;6.85;;
48522;SDS011;34315;50.150;11.070;2024-01-15T10:15:26;14.05;;;5.53;;
48522;SDS011;34315;50.150;11.070;2024-01-15T10:20:27;16.50;;;5.85;;
48522;SDS011;34315;50.150;11.070;2024-01-15T10:25:29;16.63;;;6.78;;
48522;SDS011;34315;50.150;11.070;2024-01-15T10:30:30;17.23;;;7.03;;
48522;SDS011;34315;50.150;11.070;2024-01-15T10:35:33;14.90;;;6.57;;
48522;SDS011;34315;50.150;11.070;2024-01-15T10:40:35;17.45;;;6.85;;
48522;SDS011;34315;50.150;11.070;2024-01-15T10:45:36;15.23;;;6.88;;
48522;SDS011;34315;50.150;11.070;2024-01-15T10:50:37;16.33;;;6.70;;
48522;SDS011;34315;50.150;11.070;2024-01-15T10:55:38;13.48;;;6.07;;
48522;SDS011;34315;50.150;11.070;2024-01-15T11:00:42;19.30;;;8.07;;
48522;SDS011;34315;50.150;11.070;2024-01-15T11:05:43;19.00;;;7.82;;
48522;SDS011;34315;50.150;11.070;2024-01-15T11:10:46;13.48;;;5.95;;
48522;SDS011;34315;50.150;11.070;2024-01-15T11:16:02;13.90;;;6.70;;
48522;SDS011;34315;50.150;11.070;2024-01-15T11:41:54;11.48;;;5.40;;
48522;SDS011;34315;50.150;11.070;2024-01-15T11:47:00;19.33;;;6.22;;
48522;SDS011;34315;50.150;11.070;2024-01-15T11:52:03;9.70;;;4.93;;
48522;SDS011;34315;50.150;11.070;2024-01-15T11:57:09;17.40;;;6.63;;
48522;SDS011;34315;50.150;11.070;2024-01-15T12:02:11;15.32;;;6.30;;
48522;SDS011;34315;50.150;11.070;2024-01-15T12:07:13;16.13;;;7.30;;
48522;SDS011;34315;50.150;11.070;2024-01-15T12:12:17;15.15;;;6.40;;
48522;SDS011;34315;50.150;11.070;2024-01-15T12:17:24;13.75;;;5.38;;
48522;SDS011;34315;50.150;11.070;2024-01-15T12:22:25;14.20;;;6.80;;
48522;SDS011;34315;50.150;11.070;2024-01-15T12:27:28;18.33;;;7.72;;
48522;SDS011;34315;50.150;11.070;2024-01-15T12:32:32;12.57;;;6.68;;
48522;SDS011;34315;50.150;11.070;2024-01-15T12:37:35;14.10;;;6.50;;
48522;SDS011;34315;50.150;11.070;2024-01-15T12:42:36;14.27;;;7.35;;
48522;SDS011;34315;50.150;11.070;2024-01-15T12:47:38;12.50;;;5.57;;
48522;SDS011;34315;50.150;11.070;2024-01-15T12:52:40;13.20;;;6.20;;
48522;SDS011;34315;50.150;11.070;2024-01-15T12:57:41;12.55;;;6.05;;
48522;SDS011;34315;50.150;11.070;2024-01-15T13:02:42;13.00;;;5.95;;
48522;SDS011;34315;50.150;11.070;2024-01-15T13:07:43;15.05;;;6.25;;
48522;SDS011;34315;50.150;11.070;2024-01-15T13:12:45;15.98;;;7.28;;
48522;SDS011;34315;50.150;11.070;2024-01-15T13:17:46;15.35;;;7.03;;
48522;SDS011;34315;50.150;11.070;2024-01-15T13:22:47;15.35;;;7.50;;
48522;SDS011;34315;50.150;11.070;2024-01-15T13:27:48;17.73;;;7.25;;
48522;SDS011;34315;50.150;11.070;2024-01-15T13:32:50;11.60;;;5.45;;
48522;SDS011;34315;50.150;11.070;2024-01-15T13:37:51;12.77;;;6.53;;
48522;SDS011;34315;50.150;11.070;2024-01-15T13:42:53;14.15;;;5.93;;
48522;SDS011;34315;50.150;11.070;2024-01-15T13:47:55;11.48;;;5.22;;
48522;SDS011;34315;50.150;11.070;2024-01-15T13:52:56;11.35;;;5.35;;
48522;SDS011;34315;50.150;11.070;2024-01-15T13:57:57;8.32;;;4.38;;
48522;SDS011;34315;50.150;11.070;2024-01-15T14:02:58;12.30;;;5.53;;
48522;SDS011;34315;50.150;11.070;2024-01-15T14:07:59;19.30;;;6.05;;
48522;SDS011;34315;50.150;11.070;2024-01-15T14:13:01;13.25;;;5.53;;
48522;SDS011;34315;50.150;11.070;2024-01-15T14:18:02;15.38;;;6.18;;
48522;SDS011;34315;50.150;11.070;2024-01-15T14:23:03;11.13;;;4.78;;
48522;SDS011;34315;50.150;11.070;2024-01-15T14:28:04;11.85;;;5.10;;
48522;SDS011;34315;50.150;11.070;2024-01-15T14:33:06;11.32;;;4.70;;
48522;SDS011;34315;50.150;11.070;2024-01-15T14:38:07;11.93;;;5.53;;
48522;SDS011;34315;50.150;11.070;2024-01-15T14:43:08;10.27;;;4.53;;
48522;SDS011;34315;50.150;11.070;2024-01-15T14:48:09;15.23;;;7.13;;
48522;SDS011;34315;50.150;11.070;2024-01-15T14:53:10;11.75;;;5.28;;
48522;SDS011;34315;50.150;11.070;2024-01-15T14:58:11;14.20;;;5.70;;
48522;SDS011;34315;50.150;11.070;2024-01-15T15:03:12;12.50;;;5.45;;
48522;SDS011;34315;50.150;11.070;2024-01-15T15:08:16;9.32;;;5.15;;
48522;SDS011;34315;50.150;11.070;2024-01-15T15:13:17;13.05;;;5.10;;
48522;SDS011;34315;50.150;11.070;2024-01-15T15:18:18;8.50;;;5.00;;
48522;SDS011;34315;50.150;11.070;2024-01-15T15:23:19;12.80;;;5.57;;
48522;SDS011;34315;50.150;11.070;2024-01-15T15:28:20;10.80;;;5.18;;
48522;SDS011;34315;50.150;11.070;2024-01-15T15:33:21;11.63;;;5.50;;
48522;SDS011;34315;50.150;11.070;2024-01-15T15:38:22;11.88;;;5.85;;
48522;SDS011;34315;50.150;11.070;2024-01-15T15:43:23;15.50;;;6.65;;
48522;SDS011;34315;50.150;11.070;2024-01-15T15:48:24;10.90;;;5.68;;
48522;SDS011;34315;50.150;11.070;2024-01-15T15:53:26;9.43;;;4.97;;
48522;SDS011;34315;50.150;11.070;2024-01-15T15:58:27;10.27;;;5.13;;
48522;SDS011;34315;50.150;11.070;2024-01-15T16:03:28;11.50;;;5.55;;
48522;SDS011;34315;50.150;11.070;2024-01-15T16:08:29;10.18;;;4.65;;
48522;SDS011;34315;50.150;11.070;2024-01-15T16:13:30;8.43;;;4.80;;
48522;SDS011;34315;50.150;11.070;2024-01-15T16:18:31;10.38;;;5.05;;
48522;SDS011;34315;50.150;11.070;2024-01-15T16:23:32;11.23;;;5.20;;
48522;SDS011;34315;50.150;11.070;2024-01-15T16:28:33;9.45;;;4.35;;
48522;SDS011;34315;50.150;11.070;2024-01-15T16:33:35;12.38;;;5.32;;
48522;SDS011;34315;50.150;11.070;2024-01-15T16:38:37;12.18;;;5.70;;
48522;SDS011;34315;50.150;11.070;2024-01-15T16:43:38;11.88;;;6.18;;
48522;SDS011;34315;50.150;11.070;2024-01-15T16:48:39;11.15;;;5.68;;
48522;SDS011;34315;50.150;11.070;2024-01-15T16:53:41;8.68;;;4.05;;
48522;SDS011;34315;50.150;11.070;2024-01-15T16:58:42;9.55;;;4.78;;
48522;SDS011;34315;50.150;11.070;2024-01-15T17:03:43;10.80;;;5.63;;
48522;SDS011;34315;50.150;11.070;2024-01-15T17:08:44;9.35;;;4.60;;
48522;SDS011;34315;50.150;11.070;2024-01-15T17:13:47;10.00;;;5.30;;
48522;SDS011;34315;50.150;11.070;2024-01-15T17:18:48;9.23;;;4.35;;
48522;SDS011;34315;50.150;11.070;2024-01-15T17:23:49;9.48;;;4.65;;
48522;SDS011;34315;50.150;11.070;2024-01-15T17:28:51;11.98;;;5.18;;
48522;SDS011;34315;50.150;11.070;2024-01-15T17:33:52;10.35;;;4.82;;
48522;SDS011;34315;50.150;11.070;2024-01-15T17:38:53;8.82;;;4.85;;
48522;SDS011;34315;50.150;11.070;2024-01-15T17:43:54;8.98;;;4.50;;
48522;SDS011;34315;50.150;11.070;2024-01-15T17:48:55;6.05;;;2.90;;
48522;SDS011;34315;50.150;11.070;2024-01-15T17:54:00;11.13;;;4.40;;
48522;SDS011;34315;50.150;11.070;2024-01-15T17:59:01;8.77;;;5.03;;
48522;SDS011;34315;50.150;11.070;2024-01-15T18:04:02;12.27;;;5.43;;
48522;SDS011;34315;50.150;11.070;2024-01-15T18:09:03;8.10;;;3.67;;
48522;SDS011;34315;50.150;11.070;2024-01-15T18:14:05;9.85;;;4.55;;
48522;SDS011;34315;50.150;11.070;2024-01-15T18:19:06;8.68;;;4.25;;
48522;SDS011;34315;50.150;11.070;2024-01-15T18:24:07;8.43;;;4.13;;
48522;SDS011;34315;50.150;11.070;2024-01-15T18:29:08;11.80;;;4.20;;
48522;SDS011;34315;50.150;11.070;2024-01-15T18:34:09;9.88;;;5.30;;
48522;SDS011;34315;50.150;11.070;2024-01-15T18:39:14;11.20;;;4.38;;
48522;SDS011;34315;50.150;11.070;2024-01-15T18:44:18;10.00;;;4.20;;
48522;SDS011;34315;50.150;11.070;2024-01-15T18:49:19;10.18;;;4.47;;
48522;SDS011;34315;50.150;11.070;2024-01-15T18:54:21;12.77;;;5.32;;
48522;SDS011;34315;50.150;11.070;2024-01-15T18:59:22;8.07;;;4.35;;
48522;SDS011;34315;50.150;11.070;2024-01-15T19:04:24;8.60;;;4.35;;
48522;SDS011;34315;50.150;11.070;2024-01-15T19:09:25;7.47;;;3.55;;
48522;SDS011;34315;50.150;11.070;2024-01-15T19:14:26;11.68;;;4.18;;
48522;SDS011;34315;50.150;11.070;2024-01-15T19:19:27;6.82;;;3.80;;
48522;SDS011;34315;50.150;11.070;2024-01-15T19:24:30;12.15;;;3.53;;
48522;SDS011;34315;50.150;11.070;2024-01-15T19:29:31;8.93;;;4.07;;
48522;SDS011;34315;50.150;11.070;2024-01-15T19:34:32;7.15;;;3.30;;
48522;SDS011;34315;50.150;11.070;2024-01-15T19:39:33;7.97;;;3.55;;
48522;SDS011;34315;50.150;11.070;2024-01-15T19:44:35;5.28;;;2.78;;
48522;SDS011;34315;50.150;11.070;2024-01-15T19:49:36;9.40;;;3.83;;
48522;SDS011;34315;50.150;11.070;2024-01-15T19:54:38;8.00;;;3.35;;
48522;SDS011;34315;50.150;11.070;2024-01-15T19:59:39;8.60;;;3.70;;
48522;SDS011;34315;50.150;11.070;2024-01-15T20:04:40;7.90;;;3.22;;
48522;SDS011;34315;50.150;11.070;2024-01-15T20:09:41;7.03;;;3.20;;
48522;SDS011;34315;50.150;11.070;2024-01-15T20:14:42;4.97;;;2.42;;
48522;SDS011;34315;50.150;11.070;2024-01-15T20:19:43;8.98;;;4.00;;
48522;SDS011;34315;50.150;11.070;2024-01-15T20:24:44;6.78;;;3.20;;
48522;SDS011;34315;50.150;11.070;2024-01-15T20:29:45;8.85;;;3.08;;
48522;SDS011;34315;50.150;11.070;2024-01-15T20:34:46;7.15;;;3.15;;
48522;SDS011;34315;50.150;11.070;2024-01-15T20:39:48;8.63;;;3.45;;
48522;SDS011;34315;50.150;11.070;2024-01-15T20:44:49;4.45;;;2.28;;
48522;SDS011;34315;50.150;11.070;2024-01-15T20:49:50;6.85;;;3.08;;
48522;SDS011;34315;50.150;11.070;2024-01-15T20:54:51;7.78;;;3.60;;
48522;SDS011;34315;50.150;11.070;2024-01-15T20:59:52;6.40;;;3.17;;
48522;SDS011;34315;50.150;11.070;2024-01-15T21:04:53;7.65;;;2.92;;
48522;SDS011;34315;50.150;11.070;2024-01-15T21:09:54;6.88;;;3.10;;
48522;SDS011;34315;50.150;11.070;2024-01-15T21:14:56;7.43;;;2.88;;
48522;SDS011;34315;50.150;11.070;2024-01-15T21:19:58;4.07;;;2.28;;
48522;SDS011;34315;50.150;11.070;2024-01-15T21:25:01;5.50;;;2.15;;
48522;SDS011;34315;50.150;11.070;2024-01-15T21:30:03;5.53;;;2.83;;
48522;SDS011;34315;50.150;11.070;2024-01-15T21:35:04;9.38;;;2.92;;
48522;SDS011;34315;50.150;11.070;2024-01-15T21:40:07;6.10;;;2.45;;
48522;SDS011;34315;50.150;11.070;2024-01-15T21:45:10;5.57;;;2.08;;
48522;SDS011;34315;50.150;11.070;2024-01-15T21:50:11;5.70;;;2.78;;
48522;SDS011;34315;50.150;11.070;2024-01-15T21:55:13;6.95;;;3.05;;
48522;SDS011;34315;50.150;11.070;2024-01-15T22:00:16;7.90;;;3.33;;
48522;SDS011;34315;50.150;11.070;2024-01-15T22:05:17;6.93;;;2.72;;
48522;SDS011;34315;50.150;11.070;2024-01-15T22:10:18;5.72;;;2.65;;
48522;SDS011;34315;50.150;11.070;2024-01-15T22:15:19;5.95;;;2.72;;
48522;SDS011;34315;50.150;11.070;2024-01-15T22:20:20;3.88;;;2.15;;
48522;SDS011;34315;50.150;11.070;2024-01-15T22:25:22;4.03;;;2.45;;
48522;SDS011;34315;50.150;11.070;2024-01-15T22:30:23;8.68;;;2.85;;
48522;SDS011;34315;50.150;11.070;2024-01-15T22:35:24;4.38;;;2.13;;
48522;SDS011;34315;50.150;11.070;2024-01-15T22:40:28;7.53;;;2.80;;
48522;SDS011;34315;50.150;11.070;2024-01-15T22:45:29;6.72;;;2.53;;
48522;SDS011;34315;50.150;11.070;2024-01-15T22:50:30;6.35;;;2.65;;
48522;SDS011;34315;50.150;11.070;2024-01-15T22:55:31;7.15;;;3.08;;
48522;SDS011;34315;50.150;11.070;2024-01-15T23:00:32;4.00;;;2.60;;
48522;SDS011;34315;50.150;11.070;2024-01-15T23:05:33;8.10;;;2.55;;
48522;SDS011;34315;50.150;11.070;2024-01-15T23:10:34;9.48;;;3.85;;
48522;SDS011;34315;50.150;11.070;2024-01-15T23:15:35;6.05;;;3.05;;
48522;SDS011;34315;50.150;11.070;2024-01-15T23:20:37;7.28;;;2.72;;
48522;SDS011;34315;50.150;11.070;2024-01-15T23:25:38;8.15;;;2.92;;
48522;SDS011;34315;50.150;11.070;2024-01-15T23:30:39;15.25;;;3.55;;
48522;SDS011;34315;50.150;11.070;2024-01-15T23:35:40;7.97;;;2.25;;
48522;SDS011;34315;50.150;11.070;2024-01-15T23:40:41;4.88;;;2.22;;
48522;SDS011;34315;50.150;11.070;2024-01-15T23:45:42;7.55;;;2.60;;
48522;SDS011;34315;50.150;11.070;2024-01-15T23:50:43;8.32;;;3.22;;
48522;SDS011;34315;50.150;11.070;2024-01-15T23:55:44;3.00;;;1.67;;
